sensor_id;sensor_type;location;lat;lon;timestamp;pressure;altitude;pressure_sealevel;temperature;humidity
61086;BME280;46967;48.876;2.136;2023-12-07T00:01:01;101714.66;;;31.40;15.77
61086;BME280;46967;48.876;2.136;2023-12-07T00:03:27;101710.97;;;31.33;16.12
61086;BME280;46967;48.876;2.136;2023-12-07T00:05:52;101707.81;;;31.37;15.86
61086;BME280;46967;48.876;2.136;2023-12-07T00:08:18;101708.03;;;31.52;15.86
61086;BME280;46967;48.876;2.136;2023-12-07T00:10:43;101704.25;;;31.63;15.51
61086;BME280;46967;48.876;2.136;2023-12-07T00:13:09;101711.34;;;31.46;16.10
61086;BME280;46967;48.876;2.136;2023-12-07T00:15:34;101707.69;;;31.47;16.05
61086;BME280;46967;48.876;2.136;2023-12-07T00:17:59;101701.44;;;31.47;15.76
61086;BME280;46967;48.876;2.136;2023-12-07T00:20:25;101695.94;;;31.48;15.62
61086;BME280;46967;48.876;2.136;2023-12-07T00:22:51;101699.72;;;31.29;16.12
61086;BME280;46967;48.876;2.136;2023-12-07T00:25:16;101686.22;;;30.86;16.42
61086;BME280;46967;48.876;2.136;2023-12-07T00:27:41;101687.56;;;30.20;16.62
61086;BME280;46967;48.876;2.136;2023-12-07T00:30:07;101681.66;;;30.52;16.21
61086;BME280;46967;48.876;2.136;2023-12-07T00:32:33;101680.56;;;30.63;16.30
61086;BME280;46967;48.876;2.136;2023-12-07T00:34:58;101689.78;;;30.69;16.32
61086;BME280;46967;48.876;2.136;2023-12-07T00:37:24;101690.44;;;30.89;16.13
61086;BME280;46967;48.876;2.136;2023-12-07T00:39:49;101688.59;;;30.89;16.29
61086;BME280;46967;48.876;2.136;2023-12-07T00:42:14;101693.94;;;31.08;16.07
61086;BME280;46967;48.876;2.136;2023-12-07T00:44:40;101693.31;;;31.22;15.76
61086;BME280;46967;48.876;2.136;2023-12-07T00:47:06;101692.31;;;31.23;15.66
61086;BME280;46967;48.876;2.136;2023-12-07T00:49:31;101695.53;;;31.27;16.08
61086;BME280;46967;48.876;2.136;2023-12-07T00:51:56;101702.84;;;31.16;15.77
61086;BME280;46967;48.876;2.136;2023-12-07T00:54:22;101705.38;;;31.26;15.87
61086;BME280;46967;48.876;2.136;2023-12-07T00:56:47;101703.72;;;31.25;16.01
61086;BME280;46967;48.876;2.136;2023-12-07T00:59:12;101702.47;;;31.11;15.95
61086;BME280;46967;48.876;2.136;2023-12-07T01:01:38;101693.66;;;31.19;15.95
61086;BME280;46967;48.876;2.136;2023-12-07T01:04:04;101688.28;;;31.19;16.00
61086;BME280;46967;48.876;2.136;2023-12-07T01:06:30;101697.91;;;31.03;16.13
61086;BME280;46967;48.876;2.136;2023-12-07T01:08:56;101694.97;;;30.88;15.97
61086;BME280;46967;48.876;2.136;2023-12-07T01:11:21;101703.94;;;30.79;16.25
61086;BME280;46967;48.876;2.136;2023-12-07T01:13:47;101700.44;;;30.79;15.86
61086;BME280;46967;48.876;2.136;2023-12-07T01:16:12;101696.25;;;30.84;16.09
61086;BME280;46967;48.876;2.136;2023-12-07T01:18:37;101688.06;;;30.86;16.13
61086;BME280;46967;48.876;2.136;2023-12-07T01:21:03;101690.28;;;30.91;16.04
61086;BME280;46967;48.876;2.136;2023-12-07T01:23:28;101686.84;;;30.98;16.23
61086;BME280;46967;48.876;2.136;2023-12-07T01:25:53;101679.09;;;30.95;16.13
61086;BME280;46967;48.876;2.136;2023-12-07T01:28:19;101684.88;;;31.09;16.03
61086;BME280;46967;48.876;2.136;2023-12-07T01:30:44;101666.81;;;31.11;16.07
61086;BME280;46967;48.876;2.136;2023-12-07T01:33:09;101666.66;;;31.12;15.83
61086;BME280;46967;48.876;2.136;2023-12-07T01:35:35;101666.66;;;31.12;15.96
61086;BME280;46967;48.876;2.136;2023-12-07T01:38:00;101661.31;;;31.20;15.81
61086;BME280;46967;48.876;2.136;2023-12-07T01:40:25;101665.50;;;31.23;15.85
61086;BME280;46967;48.876;2.136;2023-12-07T01:42:54;101675.13;;;31.42;15.50
61086;BME280;46967;48.876;2.136;2023-12-07T01:45:20;101669.72;;;31.25;15.42
61086;BME280;46967;48.876;2.136;2023-12-07T01:47:46;101678.31;;;31.37;15.52
61086;BME280;46967;48.876;2.136;2023-12-07T01:50:13;101666.44;;;31.48;15.29
61086;BME280;46967;48.876;2.136;2023-12-07T01:52:45;101671.28;;;31.45;15.71
61086;BME280;46967;48.876;2.136;2023-12-07T01:55:11;101663.50;;;31.59;15.31
61086;BME280;46967;48.876;2.136;2023-12-07T01:57:37;101665.31;;;31.59;15.31
61086;BME280;46967;48.876;2.136;2023-12-07T02:00:03;101669.66;;;31.52;15.25
61086;BME280;46967;48.876;2.136;2023-12-07T02:02:30;101672.44;;;31.42;15.72
61086;BME280;46967;48.876;2.136;2023-12-07T02:04:56;101668.59;;;31.45;15.41
61086;BME280;46967;48.876;2.136;2023-12-07T02:07:23;101668.13;;;31.49;15.28
61086;BME280;46967;48.876;2.136;2023-12-07T02:09:49;101662.56;;;31.34;15.65
61086;BME280;46967;48.876;2.136;2023-12-07T02:12:14;101659.19;;;31.32;15.46
61086;BME280;46967;48.876;2.136;2023-12-07T02:14:40;101657.38;;;31.41;15.57
61086;BME280;46967;48.876;2.136;2023-12-07T02:17:21;101652.19;;;31.48;15.47
61086;BME280;46967;48.876;2.136;2023-12-07T02:19:57;101648.56;;;31.57;15.69
61086;BME280;46967;48.876;2.136;2023-12-07T02:22:32;101640.84;;;31.54;15.65
61086;BME280;46967;48.876;2.136;2023-12-07T02:25:06;101631.47;;;31.58;15.32
61086;BME280;46967;48.876;2.136;2023-12-07T02:27:40;101627.44;;;31.54;15.51
61086;BME280;46967;48.876;2.136;2023-12-07T02:30:07;101625.38;;;31.48;15.32
61086;BME280;46967;48.876;2.136;2023-12-07T02:32:34;101629.44;;;31.52;15.40
61086;BME280;46967;48.876;2.136;2023-12-07T02:35:00;101628.72;;;31.41;15.28
61086;BME280;46967;48.876;2.136;2023-12-07T02:37:28;101633.09;;;31.42;15.66
61086;BME280;46967;48.876;2.136;2023-12-07T02:39:55;101634.56;;;31.37;15.86
61086;BME280;46967;48.876;2.136;2023-12-07T02:42:22;101642.84;;;31.52;15.63
61086;BME280;46967;48.876;2.136;2023-12-07T02:44:48;101636.09;;;31.48;15.80
61086;BME280;46967;48.876;2.136;2023-12-07T02:47:14;101637.94;;;31.39;15.69
61086;BME280;46967;48.876;2.136;2023-12-07T02:49:39;101646.16;;;31.46;15.54
61086;BME280;46967;48.876;2.136;2023-12-07T02:52:05;101637.78;;;31.49;15.45
61086;BME280;46967;48.876;2.136;2023-12-07T02:54:30;101639.00;;;31.54;15.18
61086;BME280;46967;48.876;2.136;2023-12-07T02:56:55;101656.09;;;31.53;15.32
61086;BME280;46967;48.876;2.136;2023-12-07T02:59:21;101652.47;;;31.71;15.54
61086;BME280;46967;48.876;2.136;2023-12-07T03:01:46;101674.09;;;31.77;15.17
61086;BME280;46967;48.876;2.136;2023-12-07T03:04:11;101654.28;;;31.62;15.36
61086;BME280;46967;48.876;2.136;2023-12-07T03:06:36;101605.50;;;31.83;15.30
61086;BME280;46967;48.876;2.136;2023-12-07T03:09:02;101573.81;;;31.70;15.27
61086;BME280;46967;48.876;2.136;2023-12-07T03:11:28;101573.97;;;31.69;15.37
61086;BME280;46967;48.876;2.136;2023-12-07T03:13:53;101576.31;;;31.55;15.55
61086;BME280;46967;48.876;2.136;2023-12-07T03:16:19;101565.03;;;31.43;15.53
61086;BME280;46967;48.876;2.136;2023-12-07T03:18:44;101556.81;;;31.37;15.49
61086;BME280;46967;48.876;2.136;2023-12-07T03:21:10;101552.16;;;31.39;15.47
61086;BME280;46967;48.876;2.136;2023-12-07T03:23:35;101553.66;;;31.50;15.42
61086;BME280;46967;48.876;2.136;2023-12-07T03:26:01;101563.22;;;31.44;15.81
61086;BME280;46967;48.876;2.136;2023-12-07T03:28:26;101565.19;;;31.34;15.90
61086;BME280;46967;48.876;2.136;2023-12-07T03:30:51;101566.22;;;31.41;15.42
61086;BME280;46967;48.876;2.136;2023-12-07T03:33:17;101567.22;;;31.40;15.37
61086;BME280;46967;48.876;2.136;2023-12-07T03:35:42;101558.00;;;31.42;15.56
61086;BME280;46967;48.876;2.136;2023-12-07T03:38:08;101554.47;;;31.42;15.53
61086;BME280;46967;48.876;2.136;2023-12-07T03:40:33;101560.22;;;31.55;15.38
61086;BME280;46967;48.876;2.136;2023-12-07T03:42:58;101558.38;;;31.56;15.38
61086;BME280;46967;48.876;2.136;2023-12-07T03:45:24;101565.22;;;31.50;15.31
61086;BME280;46967;48.876;2.136;2023-12-07T03:47:50;101567.22;;;31.40;15.62
61086;BME280;46967;48.876;2.136;2023-12-07T03:50:15;101550.94;;;31.33;15.78
61086;BME280;46967;48.876;2.136;2023-12-07T03:52:40;101562.50;;;31.42;15.79
61086;BME280;46967;48.876;2.136;2023-12-07T03:55:06;101549.13;;;31.50;15.56
61086;BME280;46967;48.876;2.136;2023-12-07T03:57:31;101552.81;;;31.49;15.41
61086;BME280;46967;48.876;2.136;2023-12-07T03:59:57;101559.41;;;31.55;15.59
61086;BME280;46967;48.876;2.136;2023-12-07T04:02:22;101565.91;;;31.52;15.55
61086;BME280;46967;48.876;2.136;2023-12-07T04:04:48;101582.31;;;31.49;15.63
61086;BME280;46967;48.876;2.136;2023-12-07T04:07:13;101590.19;;;31.51;15.46
61086;BME280;46967;48.876;2.136;2023-12-07T04:09:38;101596.09;;;31.54;15.25
61086;BME280;46967;48.876;2.136;2023-12-07T04:12:04;101595.25;;;31.54;15.38
61086;BME280;46967;48.876;2.136;2023-12-07T04:14:29;101595.09;;;31.72;15.17
61086;BME280;46967;48.876;2.136;2023-12-07T04:16:54;101592.91;;;31.59;15.04
61086;BME280;46967;48.876;2.136;2023-12-07T04:19:20;101596.63;;;31.66;15.26
61086;BME280;46967;48.876;2.136;2023-12-07T04:21:45;101594.31;;;31.20;15.71
61086;BME280;46967;48.876;2.136;2023-12-07T04:24:11;101589.84;;;30.95;15.91
61086;BME280;46967;48.876;2.136;2023-12-07T04:26:36;101584.81;;;30.92;15.94
61086;BME280;46967;48.876;2.136;2023-12-07T04:29:02;101590.13;;;30.83;15.75
61086;BME280;46967;48.876;2.136;2023-12-07T04:31:27;101581.56;;;31.14;15.94
61086;BME280;46967;48.876;2.136;2023-12-07T04:33:52;101569.41;;;30.94;15.95
61086;BME280;46967;48.876;2.136;2023-12-07T04:36:18;101562.75;;;30.98;15.99
61086;BME280;46967;48.876;2.136;2023-12-07T04:38:43;101547.88;;;31.12;15.44
61086;BME280;46967;48.876;2.136;2023-12-07T04:41:08;101539.53;;;31.23;15.47
61086;BME280;46967;48.876;2.136;2023-12-07T04:43:33;101541.34;;;30.71;16.20
61086;BME280;46967;48.876;2.136;2023-12-07T04:45:59;101529.31;;;30.76;15.90
61086;BME280;46967;48.876;2.136;2023-12-07T04:48:24;101524.34;;;30.55;16.12
61086;BME280;46967;48.876;2.136;2023-12-07T04:50:51;101517.78;;;30.23;16.16
61086;BME280;46967;48.876;2.136;2023-12-07T04:53:16;101512.44;;;29.78;16.69
61086;BME280;46967;48.876;2.136;2023-12-07T04:55:41;101498.75;;;30.26;16.50
61086;BME280;46967;48.876;2.136;2023-12-07T04:58:12;101495.06;;;30.53;16.25
61086;BME280;46967;48.876;2.136;2023-12-07T05:00:37;101507.50;;;30.70;16.14
61086;BME280;46967;48.876;2.136;2023-12-07T05:03:02;101513.94;;;30.86;16.20
61086;BME280;46967;48.876;2.136;2023-12-07T05:05:28;101511.38;;;31.02;15.68
61086;BME280;46967;48.876;2.136;2023-12-07T05:07:53;101506.06;;;30.84;15.92
61086;BME280;46967;48.876;2.136;2023-12-07T05:10:18;101498.78;;;31.03;15.90
61086;BME280;46967;48.876;2.136;2023-12-07T05:12:44;101487.25;;;31.11;15.57
61086;BME280;46967;48.876;2.136;2023-12-07T05:15:09;101494.59;;;31.00;15.73
61086;BME280;46967;48.876;2.136;2023-12-07T05:17:35;101498.13;;;31.01;15.79
61086;BME280;46967;48.876;2.136;2023-12-07T05:20:00;101483.22;;;31.06;15.75
61086;BME280;46967;48.876;2.136;2023-12-07T05:22:27;101488.06;;;31.03;15.43
61086;BME280;46967;48.876;2.136;2023-12-07T05:24:52;101512.69;;;31.06;15.98
61086;BME280;46967;48.876;2.136;2023-12-07T05:27:17;101517.41;;;31.13;15.64
61086;BME280;46967;48.876;2.136;2023-12-07T05:29:43;101524.78;;;31.19;15.79
61086;BME280;46967;48.876;2.136;2023-12-07T05:32:08;101524.31;;;31.32;15.71
61086;BME280;46967;48.876;2.136;2023-12-07T05:34:34;101521.31;;;31.51;15.64
61086;BME280;46967;48.876;2.136;2023-12-07T05:37:01;101524.97;;;31.34;15.31
61086;BME280;46967;48.876;2.136;2023-12-07T05:39:26;101522.13;;;31.43;15.58
61086;BME280;46967;48.876;2.136;2023-12-07T05:41:51;101516.50;;;31.63;14.99
61086;BME280;46967;48.876;2.136;2023-12-07T05:44:17;101518.69;;;31.59;15.25
61086;BME280;46967;48.876;2.136;2023-12-07T05:46:47;101519.34;;;31.70;15.20
61086;BME280;46967;48.876;2.136;2023-12-07T05:49:12;101501.91;;;31.74;15.20
61086;BME280;46967;48.876;2.136;2023-12-07T05:51:38;101503.91;;;31.80;15.18
61086;BME280;46967;48.876;2.136;2023-12-07T05:54:03;101502.25;;;31.79;14.95
61086;BME280;46967;48.876;2.136;2023-12-07T05:56:29;101507.44;;;31.72;15.05
61086;BME280;46967;48.876;2.136;2023-12-07T05:58:56;101509.25;;;31.80;14.89
61086;BME280;46967;48.876;2.136;2023-12-07T06:01:22;101513.13;;;31.94;14.92
61086;BME280;46967;48.876;2.136;2023-12-07T06:03:47;101509.59;;;32.02;14.83
61086;BME280;46967;48.876;2.136;2023-12-07T06:06:12;101507.38;;;32.05;14.83
61086;BME280;46967;48.876;2.136;2023-12-07T06:08:38;101495.16;;;32.03;14.91
61086;BME280;46967;48.876;2.136;2023-12-07T06:11:04;101486.59;;;31.99;15.08
61086;BME280;46967;48.876;2.136;2023-12-07T06:13:29;101487.94;;;32.03;14.91
61086;BME280;46967;48.876;2.136;2023-12-07T06:15:54;101479.91;;;31.95;15.07
61086;BME280;46967;48.876;2.136;2023-12-07T06:18:20;101469.47;;;32.17;14.71
61086;BME280;46967;48.876;2.136;2023-12-07T06:20:45;101457.94;;;32.00;14.73
61086;BME280;46967;48.876;2.136;2023-12-07T06:23:10;101455.75;;;31.95;14.78
61086;BME280;46967;48.876;2.136;2023-12-07T06:25:38;101457.91;;;32.08;15.01
61086;BME280;46967;48.876;2.136;2023-12-07T06:28:04;101450.75;;;31.92;14.97
61086;BME280;46967;48.876;2.136;2023-12-07T06:30:30;101442.03;;;31.90;14.96
61086;BME280;46967;48.876;2.136;2023-12-07T06:32:55;101442.81;;;32.07;14.75
61086;BME280;46967;48.876;2.136;2023-12-07T06:35:20;101459.94;;;32.14;14.99
61086;BME280;46967;48.876;2.136;2023-12-07T06:37:46;101450.38;;;32.11;14.88
61086;BME280;46967;48.876;2.136;2023-12-07T06:40:12;101447.84;;;32.18;14.73
61086;BME280;46967;48.876;2.136;2023-12-07T06:42:37;101454.22;;;32.17;14.94
61086;BME280;46967;48.876;2.136;2023-12-07T06:45:03;101453.72;;;32.22;15.02
61086;BME280;46967;48.876;2.136;2023-12-07T06:47:29;101460.56;;;32.32;14.54
61086;BME280;46967;48.876;2.136;2023-12-07T06:49:54;101467.06;;;32.38;14.62
61086;BME280;46967;48.876;2.136;2023-12-07T06:52:23;101464.56;;;32.37;14.86
61086;BME280;46967;48.876;2.136;2023-12-07T06:54:49;101449.03;;;31.09;15.66
61086;BME280;46967;48.876;2.136;2023-12-07T06:57:14;101445.25;;;31.77;15.34
61086;BME280;46967;48.876;2.136;2023-12-07T06:59:40;101434.94;;;32.05;14.77
61086;BME280;46967;48.876;2.136;2023-12-07T07:02:06;101418.66;;;32.23;14.65
61086;BME280;46967;48.876;2.136;2023-12-07T07:04:31;101418.13;;;32.28;14.62
61086;BME280;46967;48.876;2.136;2023-12-07T07:06:57;101430.47;;;32.37;14.79
61086;BME280;46967;48.876;2.136;2023-12-07T07:09:22;101430.13;;;32.40;14.86
61086;BME280;46967;48.876;2.136;2023-12-07T07:11:48;101439.34;;;32.46;14.36
61086;BME280;46967;48.876;2.136;2023-12-07T07:14:14;101432.53;;;32.27;14.49
61086;BME280;46967;48.876;2.136;2023-12-07T07:16:39;101434.84;;;31.82;14.81
61086;BME280;46967;48.876;2.136;2023-12-07T07:19:05;101439.69;;;31.78;14.84
61086;BME280;46967;48.876;2.136;2023-12-07T07:21:30;101457.78;;;31.93;14.97
61086;BME280;46967;48.876;2.136;2023-12-07T07:23:56;101452.75;;;31.90;15.05
61086;BME280;46967;48.876;2.136;2023-12-07T07:26:22;101461.47;;;31.92;14.78
61086;BME280;46967;48.876;2.136;2023-12-07T07:28:55;101458.28;;;31.80;14.87
61086;BME280;46967;48.876;2.136;2023-12-07T07:31:20;101459.47;;;31.86;14.72
61086;BME280;46967;48.876;2.136;2023-12-07T07:33:46;101453.78;;;31.81;14.66
61086;BME280;46967;48.876;2.136;2023-12-07T07:36:14;101441.53;;;31.94;14.74
61086;BME280;46967;48.876;2.136;2023-12-07T07:38:40;101430.44;;;31.89;14.67
61086;BME280;46967;48.876;2.136;2023-12-07T07:41:06;101413.22;;;31.42;15.03
61086;BME280;46967;48.876;2.136;2023-12-07T07:43:31;101408.53;;;31.36;15.28
61086;BME280;46967;48.876;2.136;2023-12-07T07:45:56;101406.50;;;31.05;15.34
61086;BME280;46967;48.876;2.136;2023-12-07T07:48:22;101414.66;;;30.96;15.13
61086;BME280;46967;48.876;2.136;2023-12-07T07:50:47;101405.09;;;30.85;15.58
61086;BME280;46967;48.876;2.136;2023-12-07T07:53:13;101404.09;;;30.27;15.90
61086;BME280;46967;48.876;2.136;2023-12-07T07:55:38;101405.09;;;30.85;15.27
61086;BME280;46967;48.876;2.136;2023-12-07T07:58:03;101395.63;;;31.07;15.06
61086;BME280;46967;48.876;2.136;2023-12-07T08:00:28;101399.66;;;31.11;15.29
61086;BME280;46967;48.876;2.136;2023-12-07T08:02:55;101396.97;;;31.03;15.47
61086;BME280;46967;48.876;2.136;2023-12-07T08:05:20;101391.44;;;31.21;15.00
61086;BME280;46967;48.876;2.136;2023-12-07T08:07:46;101393.78;;;31.08;15.33
61086;BME280;46967;48.876;2.136;2023-12-07T08:10:11;101393.94;;;31.22;15.04
61086;BME280;46967;48.876;2.136;2023-12-07T08:12:39;101399.13;;;31.32;15.06
61086;BME280;46967;48.876;2.136;2023-12-07T08:15:06;101387.94;;;31.53;14.92
61086;BME280;46967;48.876;2.136;2023-12-07T08:17:36;101392.28;;;31.71;14.55
61086;BME280;46967;48.876;2.136;2023-12-07T08:20:02;101399.63;;;31.77;14.68
61086;BME280;46967;48.876;2.136;2023-12-07T08:22:27;101386.88;;;31.79;14.74
61086;BME280;46967;48.876;2.136;2023-12-07T08:24:53;101386.03;;;31.87;14.68
61086;BME280;46967;48.876;2.136;2023-12-07T08:27:18;101379.50;;;31.81;14.83
61086;BME280;46967;48.876;2.136;2023-12-07T08:29:43;101367.41;;;31.85;14.83
61086;BME280;46967;48.876;2.136;2023-12-07T08:32:08;101356.88;;;31.84;14.59
61086;BME280;46967;48.876;2.136;2023-12-07T08:34:34;101363.75;;;31.78;14.87
61086;BME280;46967;48.876;2.136;2023-12-07T08:36:59;101368.56;;;31.91;14.69
61086;BME280;46967;48.876;2.136;2023-12-07T08:39:24;101373.28;;;31.89;14.45
61086;BME280;46967;48.876;2.136;2023-12-07T08:41:50;101371.31;;;31.66;14.67
61086;BME280;46967;48.876;2.136;2023-12-07T08:44:16;101368.66;;;31.58;14.91
61086;BME280;46967;48.876;2.136;2023-12-07T08:46:42;101371.47;;;31.48;14.76
61086;BME280;46967;48.876;2.136;2023-12-07T08:49:10;101375.84;;;31.57;14.41
61086;BME280;46967;48.876;2.136;2023-12-07T08:51:35;101370.31;;;31.51;14.85
61086;BME280;46967;48.876;2.136;2023-12-07T08:54:01;101352.59;;;31.58;14.77
61086;BME280;46967;48.876;2.136;2023-12-07T08:56:26;101350.53;;;31.43;14.62
61086;BME280;46967;48.876;2.136;2023-12-07T08:58:52;101344.06;;;31.21;14.85
61086;BME280;46967;48.876;2.136;2023-12-07T09:01:17;101359.59;;;31.42;14.80
61086;BME280;46967;48.876;2.136;2023-12-07T09:03:43;101349.06;;;31.41;15.03
61086;BME280;46967;48.876;2.136;2023-12-07T09:06:08;101337.13;;;31.52;14.85
61086;BME280;46967;48.876;2.136;2023-12-07T09:08:34;101333.09;;;31.64;14.79
61086;BME280;46967;48.876;2.136;2023-12-07T09:10:59;101336.09;;;31.77;14.39
61086;BME280;46967;48.876;2.136;2023-12-07T09:13:24;101320.50;;;31.73;14.77
61086;BME280;46967;48.876;2.136;2023-12-07T09:15:50;101319.47;;;31.82;14.78
61086;BME280;46967;48.876;2.136;2023-12-07T09:18:15;101297.50;;;31.87;14.17
61086;BME280;46967;48.876;2.136;2023-12-07T09:20:40;101295.91;;;32.01;14.20
61086;BME280;46967;48.876;2.136;2023-12-07T09:23:11;101293.13;;;31.86;14.74
61086;BME280;46967;48.876;2.136;2023-12-07T09:25:38;101292.00;;;31.72;14.77
61086;BME280;46967;48.876;2.136;2023-12-07T09:28:03;101286.44;;;31.82;14.72
61086;BME280;46967;48.876;2.136;2023-12-07T09:30:29;101288.88;;;32.00;14.13
61086;BME280;46967;48.876;2.136;2023-12-07T09:32:54;101286.03;;;31.45;14.91
61086;BME280;46967;48.876;2.136;2023-12-07T09:35:20;101296.16;;;31.83;14.48
61086;BME280;46967;48.876;2.136;2023-12-07T09:37:46;101304.38;;;31.81;14.14
61086;BME280;46967;48.876;2.136;2023-12-07T09:40:18;101296.06;;;31.68;14.39
61086;BME280;46967;48.876;2.136;2023-12-07T09:42:45;101300.19;;;31.87;14.32
61086;BME280;46967;48.876;2.136;2023-12-07T09:45:11;101291.19;;;32.11;14.27
61086;BME280;46967;48.876;2.136;2023-12-07T09:47:37;101279.13;;;32.15;14.21
61086;BME280;46967;48.876;2.136;2023-12-07T09:50:07;101267.03;;;32.11;14.15
61086;BME280;46967;48.876;2.136;2023-12-07T09:52:34;101263.19;;;32.13;14.45
61086;BME280;46967;48.876;2.136;2023-12-07T09:55:03;101254.63;;;32.10;14.50
61086;BME280;46967;48.876;2.136;2023-12-07T09:57:32;101246.59;;;32.02;14.45
61086;BME280;46967;48.876;2.136;2023-12-07T09:59:58;101237.38;;;31.73;14.55
61086;BME280;46967;48.876;2.136;2023-12-07T10:02:24;101232.47;;;31.76;14.32
61086;BME280;46967;48.876;2.136;2023-12-07T10:05:06;101226.41;;;31.83;14.39
61086;BME280;46967;48.876;2.136;2023-12-07T10:07:36;101219.88;;;31.85;14.20
61086;BME280;46967;48.876;2.136;2023-12-07T10:10:03;101215.06;;;32.12;14.52
61086;BME280;46967;48.876;2.136;2023-12-07T10:12:30;101207.53;;;31.99;14.55
61086;BME280;46967;48.876;2.136;2023-12-07T10:14:55;101211.94;;;31.92;14.56
61086;BME280;46967;48.876;2.136;2023-12-07T10:17:21;101209.09;;;31.93;14.27
61086;BME280;46967;48.876;2.136;2023-12-07T10:19:46;101217.44;;;31.67;14.19
61086;BME280;46967;48.876;2.136;2023-12-07T10:22:14;101200.09;;;31.78;14.19
61086;BME280;46967;48.876;2.136;2023-12-07T10:24:42;101196.94;;;32.06;14.43
61086;BME280;46967;48.876;2.136;2023-12-07T10:27:08;101190.59;;;31.75;14.39
61086;BME280;46967;48.876;2.136;2023-12-07T10:29:37;101185.06;;;31.69;14.37
61086;BME280;46967;48.876;2.136;2023-12-07T10:32:03;101183.66;;;30.77;15.14
61086;BME280;46967;48.876;2.136;2023-12-07T10:34:30;101177.63;;;30.83;15.09
61086;BME280;46967;48.876;2.136;2023-12-07T10:36:55;101183.91;;;31.23;14.80
61086;BME280;46967;48.876;2.136;2023-12-07T10:39:23;101182.22;;;31.22;14.49
61086;BME280;46967;48.876;2.136;2023-12-07T10:41:52;101183.13;;;30.98;14.76
61086;BME280;46967;48.876;2.136;2023-12-07T10:44:21;101184.63;;;30.84;15.11
61086;BME280;46967;48.876;2.136;2023-12-07T10:46:51;101191.53;;;29.09;16.29
61086;BME280;46967;48.876;2.136;2023-12-07T10:49:19;101185.22;;;29.96;15.53
61086;BME280;46967;48.876;2.136;2023-12-07T10:51:59;101178.81;;;30.73;15.10
61086;BME280;46967;48.876;2.136;2023-12-07T10:54:31;101164.22;;;30.83;15.24
61086;BME280;46967;48.876;2.136;2023-12-07T10:56:58;101149.34;;;30.48;15.34
61086;BME280;46967;48.876;2.136;2023-12-07T10:59:28;101125.56;;;30.69;15.25
61086;BME280;46967;48.876;2.136;2023-12-07T11:01:56;101116.28;;;31.05;14.65
61086;BME280;46967;48.876;2.136;2023-12-07T11:04:22;101122.75;;;30.55;15.32
61086;BME280;46967;48.876;2.136;2023-12-07T11:06:50;101111.03;;;30.56;15.18
61086;BME280;46967;48.876;2.136;2023-12-07T11:09:26;101112.47;;;30.99;14.99
61086;BME280;46967;48.876;2.136;2023-12-07T11:12:10;101104.97;;;31.34;14.51
61086;BME280;46967;48.876;2.136;2023-12-07T11:14:37;101091.75;;;31.24;14.62
61086;BME280;46967;48.876;2.136;2023-12-07T11:17:03;101099.06;;;31.39;14.57
61086;BME280;46967;48.876;2.136;2023-12-07T11:21:54;101089.38;;;31.69;14.47
61086;BME280;46967;48.876;2.136;2023-12-07T11:24:20;101093.16;;;31.75;14.35
61086;BME280;46967;48.876;2.136;2023-12-07T11:26:48;101091.38;;;30.80;14.89
61086;BME280;46967;48.876;2.136;2023-12-07T11:29:13;101089.13;;;31.48;14.41
61086;BME280;46967;48.876;2.136;2023-12-07T11:31:38;101081.06;;;31.16;14.60
61086;BME280;46967;48.876;2.136;2023-12-07T11:34:07;101078.22;;;31.18;14.80
61086;BME280;46967;48.876;2.136;2023-12-07T11:36:39;101074.44;;;31.35;14.79
61086;BME280;46967;48.876;2.136;2023-12-07T11:41:34;101068.31;;;30.70;15.04
61086;BME280;46967;48.876;2.136;2023-12-07T11:44:00;101061.75;;;30.98;14.84
61086;BME280;46967;48.876;2.136;2023-12-07T11:46:26;101047.63;;;31.12;14.74
61086;BME280;46967;48.876;2.136;2023-12-07T11:48:51;101038.94;;;30.94;15.02
61086;BME280;46967;48.876;2.136;2023-12-07T11:51:17;101020.78;;;31.20;14.89
61086;BME280;46967;48.876;2.136;2023-12-07T11:53:43;101018.78;;;30.75;15.08
61086;BME280;46967;48.876;2.136;2023-12-07T11:56:09;101022.53;;;29.58;15.93
61086;BME280;46967;48.876;2.136;2023-12-07T11:58:36;101012.28;;;30.61;15.01
61086;BME280;46967;48.876;2.136;2023-12-07T12:01:03;101015.94;;;31.16;14.74
61086;BME280;46967;48.876;2.136;2023-12-07T12:03:30;101019.72;;;30.17;15.52
61086;BME280;46967;48.876;2.136;2023-12-07T12:05:57;101012.16;;;30.54;15.50
61086;BME280;46967;48.876;2.136;2023-12-07T12:08:23;101007.31;;;30.49;15.04
61086;BME280;46967;48.876;2.136;2023-12-07T12:10:50;101000.84;;;29.94;15.98
61086;BME280;46967;48.876;2.136;2023-12-07T12:13:17;101001.13;;;30.49;15.34
61086;BME280;46967;48.876;2.136;2023-12-07T12:15:44;100987.75;;;30.49;15.64
61086;BME280;46967;48.876;2.136;2023-12-07T12:18:12;100988.56;;;30.49;15.13
61086;BME280;46967;48.876;2.136;2023-12-07T12:20:39;100983.78;;;31.16;15.00
61086;BME280;46967;48.876;2.136;2023-12-07T12:23:05;100980.41;;;31.22;14.80
61086;BME280;46967;48.876;2.136;2023-12-07T12:25:31;100989.44;;;30.81;15.14
61086;BME280;46967;48.876;2.136;2023-12-07T12:28:06;100975.03;;;31.22;14.55
61086;BME280;46967;48.876;2.136;2023-12-07T12:30:32;100960.66;;;30.83;15.02
61086;BME280;46967;48.876;2.136;2023-12-07T12:32:58;100954.88;;;31.26;14.75
61086;BME280;46967;48.876;2.136;2023-12-07T12:35:27;100940.06;;;31.38;14.84
61086;BME280;46967;48.876;2.136;2023-12-07T12:37:52;100935.06;;;31.35;14.66
61086;BME280;46967;48.876;2.136;2023-12-07T12:40:21;100944.13;;;31.34;14.58
61086;BME280;46967;48.876;2.136;2023-12-07T12:42:49;100925.19;;;31.36;14.82
61086;BME280;46967;48.876;2.136;2023-12-07T12:45:16;100915.94;;;31.62;14.33
61086;BME280;46967;48.876;2.136;2023-12-07T12:47:44;100913.94;;;31.78;14.41
61086;BME280;46967;48.876;2.136;2023-12-07T12:50:11;100915.25;;;31.97;14.42